Time;durP1;ratioP1;P1;durP2;ratioP2;P2;SDS_P1;SDS_P2;PMS_P1;PMS_P2;Temp;Humidity;BMP_temperature;BMP_pressure;BME280_temperature;BME280_humidity;BME280_pressure;Samples;Min_cycle;Max_cycle;Signal;HPM_P1;HPM_P2
2022/12/06 00:01:07;;;;;;;14.95;8.05;;;;;;;7.09;100.00;100678.91;5087563;28;20217;-73
2022/12/06 00:03:33;;;;;;;13.30;7.85;;;;;;;7.02;100.00;100661.63;5088134;28;20023;-72
2022/12/06 00:06:01;;;;;;;14.63;8.38;;;;;;;6.98;100.00;100661.84;5087617;28;20430;-73
2022/12/06 00:08:26;;;;;;;13.13;7.60;;;;;;;7.09;100.00;100673.59;5086868;28;20119;-73
2022/12/06 00:10:52;;;;;;;12.82;7.72;;;;;;;7.09;100.00;100671.75;5087278;28;20135;-72
2022/12/06 00:13:17;;;;;;;14.95;7.25;;;;;;;7.09;100.00;100673.59;5089186;28;20408;-72
2022/12/06 00:15:42;;;;;;;14.73;7.70;;;;;;;7.10;100.00;100678.81;5085785;28;20031;-73
2022/12/06 00:18:08;;;;;;;14.75;8.07;;;;;;;7.01;100.00;100658.09;5088580;28;20081;-73
2022/12/06 00:20:33;;;;;;;11.68;7.10;;;;;;;7.04;100.00;100661.38;5086850;28;20081;-73
2022/12/06 00:22:59;;;;;;;14.27;7.82;;;;;;;6.98;100.00;100645.84;5087608;28;20484;-73
2022/12/06 00:25:24;;;;;;;12.75;7.43;;;;;;;7.04;100.00;100663.22;5087167;28;20054;-73
2022/12/06 00:27:50;;;;;;;18.33;7.85;;;;;;;7.01;100.00;100642.09;5087710;28;20476;-73
2022/12/06 00:30:16;;;;;;;12.93;7.43;;;;;;;7.03;100.00;100651.69;5086768;28;20469;-74
2022/12/06 00:32:41;;;;;;;13.13;7.95;;;;;;;7.07;100.00;100646.16;5086822;28;20032;-72
2022/12/06 00:35:07;;;;;;;15.80;7.95;;;;;;;6.92;100.00;100621.38;5086869;28;20040;-73
2022/12/06 00:37:32;;;;;;;14.18;7.78;;;;;;;6.95;100.00;100610.50;5086576;28;20103;-73
2022/12/06 00:39:58;;;;;;;18.80;8.98;;;;;;;7.02;100.00;100625.13;5087010;28;20032;-73
2022/12/06 00:42:23;;;;;;;16.02;8.38;;;;;;;6.92;100.00;100624.91;5084770;28;20105;-73
2022/12/06 00:44:48;;;;;;;15.02;7.85;;;;;;;6.93;100.00;100615.09;5087883;28;20020;-73
2022/12/06 00:47:14;;;;;;;17.42;8.05;;;;;;;6.89;100.00;100618.94;5090504;28;20035;-73
2022/12/06 00:49:39;;;;;;;14.40;7.63;;;;;;;6.88;100.00;100619.91;5090674;28;20116;-73
2022/12/06 00:52:05;;;;;;;13.77;8.35;;;;;;;6.85;100.00;100623.63;5094310;28;20176;-74
2022/12/06 00:54:30;;;;;;;14.05;7.90;;;;;;;6.86;100.00;100614.66;5090129;28;20023;-74
2022/12/06 00:56:55;;;;;;;13.52;7.65;;;;;;;6.88;100.00;100622.56;5089479;28;20422;-73
2022/12/06 00:59:21;;;;;;;13.80;7.85;;;;;;;6.88;100.00;100602.09;5090326;28;20043;-73
2022/12/06 01:01:47;;;;;;;13.80;7.35;;;;;;;6.87;100.00;100604.88;5088949;28;20054;-72
2022/12/06 01:04:12;;;;;;;14.88;8.05;;;;;;;6.63;100.00;100561.19;5089493;28;20036;-73
2022/12/06 01:06:38;;;;;;;16.20;9.20;;;;;;;6.68;100.00;100577.75;5090347;28;20027;-73
2022/12/06 01:09:06;;;;;;;11.65;7.20;;;;;;;6.67;100.00;100565.34;5089399;28;20123;-72
2022/12/06 01:11:32;;;;;;;14.55;7.68;;;;;;;6.75;100.00;100585.19;5089803;28;20419;-72
2022/12/06 01:13:58;;;;;;;17.80;7.75;;;;;;;6.79;100.00;100600.06;5088948;28;20032;-73
2022/12/06 01:16:27;;;;;;;13.20;7.25;;;;;;;6.74;100.00;100593.34;5090291;28;20113;-72
2022/12/06 01:18:56;;;;;;;20.58;9.75;;;;;;;6.80;100.00;100596.41;5089215;28;20029;-73
2022/12/06 01:21:23;;;;;;;16.70;9.48;;;;;;;6.81;100.00;100589.28;5089167;28;20031;-74
2022/12/06 01:23:49;;;;;;;15.52;9.63;;;;;;;6.76;100.00;100578.94;5089123;28;20532;-73
2022/12/06 01:26:17;;;;;;;15.55;10.15;;;;;;;6.72;100.00;100561.44;5089370;28;20058;-72
2022/12/06 01:28:43;;;;;;;17.42;9.75;;;;;;;6.72;100.00;100564.13;5089257;28;20438;-72
2022/12/06 01:31:09;;;;;;;13.80;7.90;;;;;;;6.69;100.00;100553.66;5089210;28;20028;-73
2022/12/06 01:33:34;;;;;;;12.80;7.70;;;;;;;6.78;100.00;100545.00;5089276;28;20055;-73
2022/12/06 01:36:00;;;;;;;14.25;7.72;;;;;;;6.76;100.00;100552.28;5088706;28;20056;-74
2022/12/06 01:38:25;;;;;;;11.57;7.20;;;;;;;6.51;100.00;100512.25;5089406;28;20020;-73
2022/12/06 01:40:51;;;;;;;10.82;6.53;;;;;;;6.71;100.00;100534.91;5088806;28;20035;-73
2022/12/06 01:43:36;;;;;;;11.00;6.60;;;;;;;6.68;100.00;100541.28;5088168;28;20136;-73
2022/12/06 01:46:06;;;;;;;14.38;7.78;;;;;;;6.62;100.00;100528.38;5089103;28;20518;-73
2022/12/06 01:48:32;;;;;;;11.52;7.05;;;;;;;6.63;100.00;100526.56;5089319;28;20024;-73
2022/12/06 01:50:59;;;;;;;16.65;7.47;;;;;;;6.60;100.00;100534.75;5089175;28;20024;-73
2022/12/06 01:53:25;;;;;;;13.73;7.30;;;;;;;6.58;100.00;100532.19;5089639;28;20046;-73
2022/12/06 01:55:51;;;;;;;12.55;7.10;;;;;;;6.57;100.00;100538.50;5086259;28;20016;-73
2022/12/06 01:58:22;;;;;;;13.93;7.63;;;;;;;6.45;100.00;100506.50;5089257;28;20020;-73
2022/12/06 02:00:47;;;;;;;14.23;7.32;;;;;;;6.61;100.00;100532.00;5088831;28;20035;-73
2022/12/06 02:03:18;;;;;;;12.80;6.78;;;;;;;6.52;100.00;100527.28;5104534;28;20389;-73
2022/12/06 02:05:44;;;;;;;15.15;7.95;;;;;;;6.58;100.00;100540.19;5089206;28;20510;-74
2022/12/06 02:08:12;;;;;;;13.68;6.97;;;;;;;6.53;100.00;100531.69;5090583;28;20032;-73
2022/12/06 02:10:37;;;;;;;12.95;7.50;;;;;;;6.52;100.00;100529.94;5091100;28;20077;-73
2022/12/06 02:13:04;;;;;;;14.95;7.03;;;;;;;6.51;100.00;100532.72;5106377;28;20027;-73
2022/12/06 02:16:08;;;;;;;11.65;6.80;;;;;;;6.47;100.00;100528.56;5090983;28;20024;-73
2022/12/06 02:18:43;;;;;;;13.20;7.73;;;;;;;6.50;100.00;100531.03;5087015;28;20460;-73
2022/12/06 02:21:22;;;;;;;19.67;11.48;;;;;;;6.39;100.00;100504.25;5090924;28;20474;-73
2022/12/06 02:24:15;;;;;;;19.60;11.27;;;;;;;6.38;100.00;100502.53;5089485;28;20020;-73
2022/12/06 02:26:50;;;;;;;19.45;12.10;;;;;;;6.45;100.00;100495.84;5090816;28;20043;-73
2022/12/06 02:29:42;;;;;;;18.73;10.23;;;;;;;6.51;100.00;100506.94;5090923;28;20430;-73
2022/12/06 02:32:20;;;;;;;15.40;10.45;;;;;;;6.49;100.00;100506.16;5089449;28;20387;-73
2022/12/06 02:34:55;;;;;;;16.65;9.27;;;;;;;6.49;100.00;100511.50;5090703;28;20031;-73
2022/12/06 02:37:33;;;;;;;14.18;9.32;;;;;;;6.48;100.00;100498.31;5090771;28;20020;-73
2022/12/06 02:40:10;;;;;;;15.57;8.50;;;;;;;6.48;100.00;100493.81;5091192;28;20040;-73
2022/12/06 02:42:44;;;;;;;12.73;7.35;;;;;;;6.29;100.00;100466.72;5090647;28;20048;-74
2022/12/06 02:45:17;;;;;;;11.10;7.15;;;;;;;6.46;100.00;100490.44;5090755;28;20028;-74
2022/12/06 02:47:44;;;;;;;13.23;7.25;;;;;;;6.44;100.00;100488.81;5090707;28;20103;-73
2022/12/06 02:50:20;;;;;;;12.10;6.55;;;;;;;6.45;100.00;100480.72;5090237;28;20066;-73
2022/12/06 02:52:48;;;;;;;11.60;6.78;;;;;;;6.21;100.00;100434.44;5090483;28;20656;-74
2022/12/06 02:55:16;;;;;;;15.10;7.53;;;;;;;6.44;100.00;100464.81;5090455;28;20617;-73
2022/12/06 02:57:50;;;;;;;12.75;7.20;;;;;;;6.37;100.00;100456.41;5090575;28;20365;-73
2022/12/06 03:00:27;;;;;;;9.67;6.13;;;;;;;6.41;100.00;100465.03;5090401;28;20024;-74
2022/12/06 03:03:03;;;;;;;10.63;6.75;;;;;;;6.42;100.00;100472.91;5098819;28;20102;-73
2022/12/06 03:05:54;;;;;;;13.93;7.70;;;;;;;6.23;100.00;100437.84;5089319;28;20078;-72
2022/12/06 03:08:27;;;;;;;14.80;7.15;;;;;;;6.21;100.00;100433.59;5089004;28;20028;-74
2022/12/06 03:10:59;;;;;;;11.23;5.97;;;;;;;6.41;100.00;100465.03;5089645;28;20028;-73
2022/12/06 03:13:38;;;;;;;12.00;6.40;;;;;;;6.41;100.00;100463.25;5090226;28;20070;-73
2022/12/06 03:16:11;;;;;;;10.35;6.50;;;;;;;6.41;100.00;100467.69;5088925;28;20067;-70
2022/12/06 03:19:04;;;;;;;13.38;7.75;;;;;;;6.37;100.00;100458.22;5089732;28;20055;-70
2022/12/06 03:21:45;;;;;;;10.95;6.53;;;;;;;6.48;100.00;100472.50;5088523;28;20510;-70
2022/12/06 03:24:13;;;;;;;12.07;7.07;;;;;;;6.44;100.00;100473.69;5086845;28;20392;-70
2022/12/06 03:26:41;;;;;;;13.43;7.47;;;;;;;6.39;100.00;100497.09;5088618;28;20035;-70
2022/12/06 03:29:09;;;;;;;27.17;13.07;;;;;;;6.34;100.00;100493.06;5088029;28;20036;-69
2022/12/06 03:31:38;;;;;;;26.42;11.95;;;;;;;6.38;100.00;100514.06;5088286;28;20031;-69
2022/12/06 03:34:29;;;;;;;20.95;9.98;;;;;;;6.36;100.00;100507.97;5087869;28;20077;-70
2022/12/06 03:36:56;;;;;;;13.27;7.45;;;;;;;6.38;100.00;100506.06;5085112;28;20489;-71
2022/12/06 03:39:32;;;;;;;11.68;7.50;;;;;;;6.36;100.00;100499.16;5087490;28;20027;-73
2022/12/06 03:41:58;;;;;;;11.60;6.88;;;;;;;6.35;100.00;100516.91;5085591;28;20027;-70
2022/12/06 03:44:24;;;;;;;9.43;5.95;;;;;;;6.36;100.00;100512.47;5088147;28;20378;-71
2022/12/06 03:46:59;;;;;;;11.00;6.80;;;;;;;6.34;100.00;100501.91;5087292;28;20020;-70
2022/12/06 03:49:31;;;;;;;11.30;5.57;;;;;;;6.34;100.00;100495.72;5087443;28;20472;-70
2022/12/06 03:51:57;;;;;;;9.63;6.03;;;;;;;6.32;100.00;100479.84;5087342;28;20024;-70
2022/12/06 03:54:22;;;;;;;12.27;6.78;;;;;;;6.35;100.00;100476.97;5087215;28;20503;-70
2022/12/06 03:56:48;;;;;;;12.70;6.80;;;;;;;6.37;100.00;100472.41;5087235;28;20227;-71
2022/12/06 03:59:13;;;;;;;14.02;7.03;;;;;;;6.37;100.00;100471.53;5086254;28;20561;-70
2022/12/06 04:01:39;;;;;;;10.60;6.82;;;;;;;6.29;100.00;100461.41;5087095;28;20601;-69
2022/12/06 04:04:05;;;;;;;12.23;7.00;;;;;;;6.18;100.00;100439.13;5085318;28;20032;-71
2022/12/06 04:06:30;;;;;;;13.80;7.38;;;;;;;6.33;100.00;100473.56;5085989;28;20032;-70
2022/12/06 04:09:51;;;;;;;14.07;6.82;;;;;;;6.29;100.00;100463.22;5086930;28;20038;-70
2022/12/06 04:11:41;;;;;;;10.85;6.80;;;;;;;6.16;100.00;100428.56;5087525;28;20039;-70
2022/12/06 04:14:06;;;;;;;10.25;6.60;;;;;;;6.25;100.00;100440.41;5086664;28;20047;-70
2022/12/06 04:19:16;;;;;;;12.88;7.00;;;;;;;6.26;100.00;100442.13;5090961;28;20034;-70
2022/12/06 04:24:25;;;;;;;13.95;7.43;;;;;;;6.37;100.00;100458.22;5091419;28;20031;-70
2022/12/06 04:28:40;;;;;;;9.98;6.20;;;;;;;6.32;100.00;100453.19;5091408;28;20035;-69
2022/12/06 04:40:32;;;;;;;12.18;6.22;;;;;;;6.23;100.00;100419.19;5090678;28;20075;-70
2022/12/06 04:45:41;;;;;;;8.80;5.53;;;;;;;6.34;100.00;100451.31;5090527;28;20039;-71
2022/12/06 04:48:07;;;;;;;12.80;6.75;;;;;;;6.31;100.00;100440.00;5090310;28;20400;-70
2022/12/06 04:50:32;;;;;;;12.00;6.55;;;;;;;6.38;100.00;100444.81;5093894;28;20115;-69
2022/12/06 04:52:58;;;;;;;10.93;6.65;;;;;;;6.34;100.00;100456.63;5091236;28;20028;-74
2022/12/06 04:55:23;;;;;;;12.63;6.18;;;;;;;6.05;100.00;100401.84;5092946;28;20039;-73
2022/12/06 04:57:49;;;;;;;10.85;6.97;;;;;;;6.18;100.00;100439.13;5092849;28;20020;-73
2022/12/06 05:00:14;;;;;;;15.00;8.07;;;;;;;6.30;100.00;100444.47;5092734;28;20032;-73
2022/12/06 05:02:40;;;;;;;13.38;7.15;;;;;;;6.13;100.00;100414.63;5092761;28;20031;-73
2022/12/06 05:05:06;;;;;;;13.02;7.57;;;;;;;6.32;100.00;100466.53;5092264;28;20469;-74
2022/12/06 05:07:31;;;;;;;15.25;8.25;;;;;;;6.25;100.00;100435.06;5092358;28;20024;-74
2022/12/06 05:09:56;;;;;;;16.73;9.23;;;;;;;6.31;100.00;100445.31;5092211;28;20032;-74
2022/12/06 05:12:22;;;;;;;21.85;9.63;;;;;;;6.15;100.00;100420.69;5092585;28;20036;-74
2022/12/06 05:14:47;;;;;;;18.95;9.80;;;;;;;6.18;100.00;100428.47;5092292;28;20024;-73
2022/12/06 05:17:13;;;;;;;16.58;8.55;;;;;;;6.25;100.00;100446.59;5091938;28;20118;-73
2022/12/06 05:19:38;;;;;;;14.18;8.80;;;;;;;6.23;100.00;100448.50;5091918;28;20031;-72
2022/12/06 05:22:04;;;;;;;17.48;9.63;;;;;;;6.21;100.00;100450.44;5090411;28;20028;-73
2022/12/06 05:24:29;;;;;;;13.13;8.43;;;;;;;6.23;100.00;100463.63;5090436;28;20024;-73
2022/12/06 05:26:54;;;;;;;15.98;8.00;;;;;;;6.21;100.00;100468.22;5089831;28;20106;-74
2022/12/06 05:29:20;;;;;;;13.63;7.43;;;;;;;6.21;100.00;100485.06;5089959;28;20528;-72
2022/12/06 05:31:45;;;;;;;14.70;7.75;;;;;;;6.20;100.00;100474.50;5089609;28;20361;-73
2022/12/06 05:34:11;;;;;;;13.13;7.90;;;;;;;6.22;100.00;100470.78;5089575;28;20181;-73
2022/12/06 05:36:36;;;;;;;20.13;8.77;;;;;;;6.23;100.00;100463.63;5090066;28;20028;-73
2022/12/06 05:39:03;;;;;;;15.30;8.68;;;;;;;6.10;100.00;100454.78;5090437;28;20031;-73
2022/12/06 05:41:28;;;;;;;14.15;7.25;;;;;;;6.20;100.00;100470.03;5089644;28;20380;-73
2022/12/06 05:43:53;;;;;;;15.30;7.97;;;;;;;6.18;100.00;100481.72;5089194;28;20048;-73
2022/12/06 05:46:19;;;;;;;18.05;10.00;;;;;;;6.16;100.00;100463.19;5090334;28;20051;-73
2022/12/06 05:48:44;;;;;;;12.85;7.80;;;;;;;6.20;100.00;100469.16;5089682;28;20024;-73
2022/12/06 05:51:10;;;;;;;13.07;7.30;;;;;;;6.18;100.00;100474.59;5089884;28;20040;-73
2022/12/06 05:53:35;;;;;;;12.57;7.63;;;;;;;6.15;100.00;100457.97;5089601;28;20031;-72
2022/12/06 05:56:07;;;;;;;13.88;7.60;;;;;;;6.16;100.00;100457.84;5089035;28;20101;-73
2022/12/06 05:58:32;;;;;;;12.18;7.10;;;;;;;6.13;100.00;100451.91;5087879;28;20040;-73
2022/12/06 06:00:58;;;;;;;14.05;7.85;;;;;;;6.12;100.00;100456.38;5089510;28;20035;-70
2022/12/06 06:03:23;;;;;;;11.15;6.88;;;;;;;6.16;100.00;100454.38;5089693;28;20238;-69
2022/12/06 06:05:50;;;;;;;13.38;7.60;;;;;;;6.15;100.00;100457.97;5091187;28;20042;-70
2022/12/06 06:08:18;;;;;;;14.30;7.80;;;;;;;6.06;100.00;100448.78;5087880;28;20028;-70
2022/12/06 06:10:44;;;;;;;13.13;7.22;;;;;;;6.12;100.00;100453.72;5087937;28;20031;-70
2022/12/06 06:13:10;;;;;;;11.45;7.07;;;;;;;6.13;100.00;100449.25;5088110;28;20487;-70
2022/12/06 06:15:36;;;;;;;14.30;7.35;;;;;;;6.05;100.00;100436.44;5088274;28;20068;-69
2022/12/06 06:18:01;;;;;;;16.80;7.47;;;;;;;6.11;100.00;100438.69;5090611;28;20020;-70
2022/12/06 06:20:27;;;;;;;11.63;6.93;;;;;;;6.11;100.00;100436.03;5099803;28;20108;-71
2022/12/06 06:22:53;;;;;;;12.02;7.57;;;;;;;6.08;100.00;100428.25;5081402;28;20036;-72
2022/12/06 06:25:19;;;;;;;14.23;7.70;;;;;;;6.14;100.00;100443.81;5086649;28;20051;-70
2022/12/06 06:27:44;;;;;;;16.80;8.20;;;;;;;6.02;100.00;100412.69;5087636;28;20476;-71
2022/12/06 06:30:11;;;;;;;14.20;7.97;;;;;;;6.15;100.00;100426.88;5085618;28;20047;-71
2022/12/06 06:32:36;;;;;;;12.43;7.53;;;;;;;6.14;100.00;100427.84;5087288;28;20115;-70
2022/12/06 06:35:03;;;;;;;14.77;8.27;;;;;;;6.15;100.00;100420.69;5087545;28;20120;-69
2022/12/06 06:37:28;;;;;;;13.30;7.78;;;;;;;6.16;100.00;100415.25;5087774;28;20035;-69
2022/12/06 06:39:54;;;;;;;15.52;8.15;;;;;;;6.17;100.00;100394.81;5086307;28;20057;-71
2022/12/06 06:42:19;;;;;;;16.17;8.95;;;;;;;6.20;100.00;100398.13;5086670;28;20052;-70
2022/12/06 06:44:45;;;;;;;17.88;9.63;;;;;;;6.18;100.00;100397.38;5089260;28;20024;-70
2022/12/06 06:47:11;;;;;;;17.45;10.27;;;;;;;5.83;100.00;100328.84;5083590;28;20052;-69
2022/12/06 06:49:37;;;;;;;19.17;10.02;;;;;;;6.15;100.00;100386.06;5086400;28;20649;-69
2022/12/06 06:52:02;;;;;;;18.42;9.73;;;;;;;6.20;100.00;100390.16;5083127;28;20028;-70
2022/12/06 06:54:28;;;;;;;17.98;8.85;;;;;;;6.25;100.00;100406.66;5086432;28;20024;-70
2022/12/06 06:56:55;;;;;;;15.88;8.88;;;;;;;6.19;100.00;100401.75;5103202;28;20027;-70
2022/12/06 06:59:21;;;;;;;15.48;9.15;;;;;;;5.98;100.00;100378.41;5087889;28;20047;-70
2022/12/06 07:01:47;;;;;;;17.23;9.85;;;;;;;6.21;100.00;100422.94;5087782;28;20053;-69
2022/12/06 07:04:12;;;;;;;15.05;9.55;;;;;;;6.10;100.00;100414.84;5088173;28;20097;-70
2022/12/06 07:06:38;;;;;;;18.77;10.75;;;;;;;6.13;100.00;100419.97;5090257;28;20476;-70
2022/12/06 07:09:03;;;;;;;20.02;10.50;;;;;;;6.12;100.00;100412.91;5089369;28;20491;-69
2022/12/06 07:11:29;;;;;;;19.13;10.48;;;;;;;6.09;100.00;100406.00;5086746;28;20042;-69
2022/12/06 07:13:54;;;;;;;17.73;9.35;;;;;;;6.06;100.00;100400.03;5088041;28;20044;-70
2022/12/06 07:16:19;;;;;;;19.73;10.82;;;;;;;6.06;100.00;100392.06;5088308;28;20073;-69
2022/12/06 07:18:46;;;;;;;20.33;9.82;;;;;;;6.08;100.00;100400.78;5090724;28;20037;-69
2022/12/06 07:21:14;;;;;;;19.00;10.30;;;;;;;6.13;100.00;100426.13;5088050;28;20111;-69
2022/12/06 07:24:49;;;;;;;16.45;8.45;;;;;;;6.15;100.00;100436.66;5088427;28;20030;-69
2022/12/06 07:27:14;;;;;;;15.88;9.35;;;;;;;5.97;100.00;100404.16;5087253;28;20085;-73
2022/12/06 07:29:40;;;;;;;16.92;9.25;;;;;;;6.00;100.00;100425.25;5090186;28;20028;-73
2022/12/06 07:32:05;;;;;;;20.05;10.05;;;;;;;6.15;100.00;100450.84;5090328;28;20032;-74
2022/12/06 07:34:32;;;;;;;17.38;9.88;;;;;;;6.15;100.00;100447.31;5091076;28;20120;-73
2022/12/06 07:36:57;;;;;;;17.42;10.20;;;;;;;6.17;100.00;100442.75;5090379;28;20039;-73
2022/12/06 07:39:23;;;;;;;17.95;9.80;;;;;;;6.16;100.00;100451.69;5090665;28;20023;-73
2022/12/06 07:47:16;;;;;;;19.23;11.13;;;;;;;6.15;100.00;100471.28;5090062;28;20031;-72
2022/12/06 07:49:42;;;;;;;21.10;10.80;;;;;;;6.11;100.00;100448.47;5090541;28;20747;-73
2022/12/06 07:52:07;;;;;;;19.33;10.27;;;;;;;5.97;100.00;100427.28;5090494;28;20034;-74
2022/12/06 07:54:32;;;;;;;18.42;10.10;;;;;;;6.08;100.00;100440.69;5093920;28;20039;-74
2022/12/06 07:56:58;;;;;;;19.38;11.02;;;;;;;6.25;100.00;100457.25;5095782;28;20027;-74
2022/12/06 07:59:24;;;;;;;19.02;10.90;;;;;;;6.12;100.00;100436.88;5094529;28;20663;-73
2022/12/06 08:01:51;;;;;;;17.10;9.82;;;;;;;6.14;100.00;100446.47;5094911;28;20470;-72
2022/12/06 08:04:17;;;;;;;19.42;11.18;;;;;;;5.88;100.00;100420.75;5094600;28;20020;-73
2022/12/06 08:06:43;;;;;;;21.98;12.13;;;;;;;5.93;100.00;100434.59;5094689;28;20040;-74
2022/12/06 08:09:08;;;;;;;20.23;11.70;;;;;;;6.06;100.00;100487.91;5094286;28;20059;-73
2022/12/06 08:11:35;;;;;;;17.60;11.25;;;;;;;6.03;100.00;100475.63;5094465;28;20119;-73
2022/12/06 08:14:01;;;;;;;23.38;11.68;;;;;;;6.01;100.00;100453.59;5094403;28;20085;-74
2022/12/06 08:16:26;;;;;;;19.70;11.35;;;;;;;6.05;100.00;100468.41;5094461;28;20024;-74
2022/12/06 08:18:52;;;;;;;19.20;11.30;;;;;;;5.99;100.00;100454.63;5094324;28;20032;-73
2022/12/06 08:21:17;;;;;;;21.30;11.50;;;;;;;5.96;100.00;100452.16;5094468;28;20084;-73
2022/12/06 08:23:43;;;;;;;19.17;11.32;;;;;;;5.84;100.00;100415.75;5093845;28;20027;-72
2022/12/06 08:26:12;;;;;;;20.85;11.50;;;;;;;5.83;100.00;100417.53;5093591;28;20024;-73
2022/12/06 08:28:38;;;;;;;18.90;10.70;;;;;;;5.98;100.00;100432.50;5093716;28;20024;-74
2022/12/06 08:31:08;;;;;;;19.95;12.05;;;;;;;5.97;100.00;100433.44;5094156;28;20419;-73
2022/12/06 08:33:34;;;;;;;20.83;11.02;;;;;;;5.78;100.00;100414.31;5091591;28;20031;-73
2022/12/06 08:35:59;;;;;;;20.95;10.70;;;;;;;5.93;100.00;100442.59;5093799;28;20024;-73
2022/12/06 08:38:25;;;;;;;17.83;11.68;;;;;;;5.87;100.00;100434.16;5094139;28;20122;-74
2022/12/06 08:40:50;;;;;;;20.02;12.00;;;;;;;5.88;100.00;100433.22;5093812;28;20028;-74
2022/12/06 08:43:16;;;;;;;19.10;11.75;;;;;;;5.81;100.00;100413.25;5092821;28;20028;-70
2022/12/06 08:45:42;;;;;;;21.70;12.27;;;;;;;5.85;100.00;100434.28;5092325;28;20396;-70
2022/12/06 08:48:07;;;;;;;20.42;11.82;;;;;;;6.00;100.00;100465.16;5092160;28;20125;-71
2022/12/06 08:50:33;;;;;;;21.80;12.32;;;;;;;6.02;100.00;100470.41;5092719;28;20039;-71
2022/12/06 08:52:58;;;;;;;21.50;11.95;;;;;;;6.06;100.00;100475.41;5092114;28;20024;-71
2022/12/06 08:55:23;;;;;;;23.52;13.05;;;;;;;6.09;100.00;100471.69;5092590;28;20070;-70
2022/12/06 08:57:49;;;;;;;21.30;12.13;;;;;;;6.03;100.00;100464.97;5090637;28;20068;-71
2022/12/06 09:00:15;;;;;;;21.17;12.40;;;;;;;6.04;100.00;100466.69;5094015;28;20441;-70
2022/12/06 09:02:41;;;;;;;21.33;12.88;;;;;;;5.87;100.00;100436.84;5091520;28;20531;-70
2022/12/06 09:05:07;;;;;;;22.67;12.32;;;;;;;5.97;100.00;100473.34;5090792;28;20118;-71
2022/12/06 09:07:33;;;;;;;20.52;11.60;;;;;;;5.99;100.00;100467.94;5091671;28;20032;-70
2022/12/06 09:09:58;;;;;;;22.33;12.68;;;;;;;5.94;100.00;100457.59;5091735;28;20043;-70
2022/12/06 09:12:24;;;;;;;20.85;12.15;;;;;;;5.87;100.00;100452.81;5091880;28;20035;-70
2022/12/06 09:14:49;;;;;;;19.48;11.98;;;;;;;6.01;100.00;100476.69;5089539;28;20055;-72
2022/12/06 09:17:15;;;;;;;22.20;12.93;;;;;;;5.81;100.00;100438.06;5093580;28;20028;-72
2022/12/06 09:19:41;;;;;;;20.17;12.27;;;;;;;5.87;100.00;100431.50;5093279;28;20028;-73
2022/12/06 09:22:06;;;;;;;19.90;12.15;;;;;;;6.23;100.00;100447.66;5093475;28;20040;-73
2022/12/06 09:24:32;;;;;;;21.80;12.32;;;;;;;6.20;100.00;100445.22;5092981;28;20027;-74
2022/12/06 09:26:57;;;;;;;20.50;12.43;;;;;;;6.21;100.00;100452.22;5092951;28;20024;-72
2022/12/06 09:29:23;;;;;;;18.80;12.63;;;;;;;6.39;100.00;100453.66;5092721;28;20111;-72
2022/12/06 09:31:49;;;;;;;20.42;13.02;;;;;;;6.42;100.00;100448.13;5090641;28;20051;-72
2022/12/06 09:34:15;;;;;;;21.98;12.07;;;;;;;6.46;100.00;100445.13;5092686;28;20035;-72
2022/12/06 09:36:47;;;;;;;21.25;12.80;;;;;;;6.54;100.00;100441.91;5092803;28;20047;-73
2022/12/06 09:39:20;;;;;;;18.77;12.32;;;;;;;6.55;100.00;100438.31;5092846;28;20055;-73
2022/12/06 09:42:01;;;;;;;34.92;19.35;;;;;;;6.53;100.00;100427.75;5091100;28;20502;-73
2022/12/06 09:44:56;;;;;;;23.83;14.80;;;;;;;6.59;100.00;100423.81;5088845;28;20032;-74
2022/12/06 09:47:35;;;;;;;23.90;14.40;;;;;;;6.49;100.00;100423.59;5092407;28;20426;-73
2022/12/06 09:50:01;;;;;;;25.02;15.30;;;;;;;6.37;100.00;100416.47;5091728;28;20113;-72
2022/12/06 09:52:46;;;;;;;25.63;16.33;;;;;;;6.50;100.00;100425.31;5094665;28;20468;-73
2022/12/06 09:55:17;;;;;;;29.40;17.77;;;;;;;6.27;100.00;100399.41;5088040;28;20044;-73
2022/12/06 09:58:07;;;;;;;30.10;17.95;;;;;;;6.52;100.00;100430.53;5094192;28;20102;-72
2022/12/06 10:00:46;;;;;;;31.58;20.08;;;;;;;6.40;100.00;100405.59;5091998;28;20031;-73
2022/12/06 10:03:46;;;;;;;31.00;20.50;;;;;;;6.57;100.00;100421.25;5105919;28;20032;-73
2022/12/06 10:06:15;;;;;;;28.45;18.15;;;;;;;6.55;100.00;100425.00;5085611;28;20119;-73
2022/12/06 10:08:50;;;;;;;30.70;19.42;;;;;;;6.50;100.00;100417.31;5092125;28;20035;-73
2022/12/06 10:11:34;;;;;;;28.52;18.88;;;;;;;6.50;100.00;100417.31;5092541;28;20024;-72
2022/12/06 10:14:11;;;;;;;25.95;16.83;;;;;;;6.56;100.00;100416.03;5093264;28;20028;-73
2022/12/06 10:17:05;;;;;;;21.95;14.88;;;;;;;6.36;100.00;100380.09;5090307;28;20138;-73
2022/12/06 10:19:34;;;;;;;20.33;12.57;;;;;;;6.63;100.00;100419.97;5091152;28;20042;-74
2022/12/06 10:22:02;;;;;;;20.27;13.27;;;;;;;6.60;100.00;100417.53;5091883;28;20107;-74
2022/12/06 10:24:47;;;;;;;19.00;13.23;;;;;;;6.63;100.00;100425.31;5093656;28;20028;-73
2022/12/06 10:27:28;;;;;;;21.33;12.15;;;;;;;6.80;100.00;100428.50;5090130;28;20051;-70
2022/12/06 10:30:00;;;;;;;18.95;11.23;;;;;;;6.83;100.00;100432.75;5088575;28;20044;-69
2022/12/06 10:33:02;;;;;;;17.23;11.07;;;;;;;6.89;100.00;100425.19;5090789;28;20498;-71
2022/12/06 10:36:02;;;;;;;20.23;11.57;;;;;;;6.91;100.00;100431.22;5088652;28;20032;-70
2022/12/06 10:38:40;;;;;;;17.17;10.75;;;;;;;6.79;100.00;100408.13;5089771;28;20036;-69
2022/12/06 10:41:25;;;;;;;19.98;11.80;;;;;;;6.95;100.00;100431.88;5089951;28;20077;-70
2022/12/06 10:44:17;;;;;;;16.75;10.32;;;;;;;7.10;100.00;100430.78;5090200;28;20135;-70
2022/12/06 10:47:05;;;;;;;17.20;10.25;;;;;;;7.11;100.00;100415.63;5089154;28;20032;-70
2022/12/06 10:49:49;;;;;;;15.32;9.73;;;;;;;7.30;100.00;100432.00;5089653;28;20088;-70
2022/12/06 10:52:27;;;;;;;18.05;11.52;;;;;;;7.31;100.00;100428.38;5091332;28;20102;-70
2022/12/06 10:54:55;;;;;;;12.23;8.77;;;;;;;7.42;100.00;100418.66;5087999;28;20036;-72
2022/12/06 10:57:33;;;;;;;13.55;8.95;;;;;;;7.35;100.00;100427.22;5090126;28;20103;-73
2022/12/06 11:00:18;;;;;;;16.23;9.80;;;;;;;7.34;100.00;100413.00;5089953;28;20429;-72
2022/12/06 11:02:53;;;;;;;14.80;8.98;;;;;;;7.33;100.00;100411.31;5090112;28;20042;-73
2022/12/06 11:05:57;;;;;;;13.52;8.57;;;;;;;7.32;100.00;100406.09;5089470;28;20135;-73
2022/12/06 11:08:32;;;;;;;10.55;7.35;;;;;;;7.41;100.00;100392.06;5090805;28;20035;-73
2022/12/06 11:11:00;;;;;;;9.38;6.90;;;;;;;7.55;100.00;100405.25;5091192;28;20020;-72
2022/12/06 11:13:28;;;;;;;8.85;6.97;;;;;;;7.66;100.00;100387.47;5091000;28;20024;-70
2022/12/06 11:16:31;;;;;;;9.20;6.95;;;;;;;7.69;100.00;100386.38;5088561;28;20020;-70
2022/12/06 11:19:24;;;;;;;10.25;7.07;;;;;;;7.71;100.00;100384.47;5085064;28;20051;-70
2022/12/06 11:21:59;;;;;;;12.18;7.40;;;;;;;7.83;100.00;100383.53;5075458;28;20065;-69
2022/12/06 11:24:34;;;;;;;10.10;6.50;;;;;;;7.68;100.00;100363.31;5098257;27;20036;-71
2022/12/06 11:27:23;;;;;;;9.43;6.35;;;;;;;7.92;100.00;100378.34;5087810;28;20117;-72
2022/12/06 11:29:49;;;;;;;7.03;5.50;;;;;;;8.01;100.00;100374.13;5087779;28;20081;-71
2022/12/06 11:32:16;;;;;;;7.18;5.40;;;;;;;7.96;100.00;100354.94;5090573;28;20715;-73
2022/12/06 11:34:46;;;;;;;8.23;5.88;;;;;;;8.00;100.00;100364.41;5095026;28;20069;-72
2022/12/06 11:37:21;;;;;;;9.23;6.13;;;;;;;8.05;99.90;100356.88;5096882;28;20124;-72
2022/12/06 11:39:50;;;;;;;7.20;5.20;;;;;;;7.92;100.00;100348.09;5097565;28;20141;-73
2022/12/06 11:42:21;;;;;;;6.70;4.53;;;;;;;7.97;100.00;100352.13;5096912;28;20478;-72
2022/12/06 11:44:53;;;;;;;7.57;5.25;;;;;;;7.98;100.00;100351.19;5095725;28;20028;-73
2022/12/06 11:47:21;;;;;;;7.57;5.20;;;;;;;8.13;98.52;100355.31;5095443;28;20026;-72
2022/12/06 11:49:48;;;;;;;8.98;4.50;;;;;;;8.17;94.51;100330.09;5095121;28;20085;-74
2022/12/06 11:52:27;;;;;;;5.10;3.53;;;;;;;8.31;90.76;100355.75;5096441;28;20027;-73